Time;durP1;ratioP1;P1;durP2;ratioP2;P2;SDS_P1;SDS_P2;PMS_P1;PMS_P2;Temp;Humidity;BMP_temperature;BMP_pressure;BME280_temperature;BME280_humidity;BME280_pressure;Samples;Min_cycle;Max_cycle;Signal;HPM_P1;HPM_P2
2023/03/17 00:01:05;;;;;;;;;;;7.70;99.90;;;;;;5069783;28;20462;-41
2023/03/17 00:03:32;;;;;;;;;;;7.70;99.90;;;;;;5072557;28;19961;-38
2023/03/17 00:05:59;;;;;;;;;;;7.80;99.90;;;;;;5060819;28;20450;-39
2023/03/17 00:08:26;;;;;;;;;;;7.80;99.90;;;;;;5046263;28;20351;-40
2023/03/17 00:10:54;;;;;;;;;;;7.80;99.90;;;;;;5046437;28;19989;-39
2023/03/17 00:13:21;;;;;;;;;;;7.80;99.90;;;;;;5070328;28;19945;-40
2023/03/17 00:15:52;;;;;;;;;;;7.80;99.90;;;;;;5071669;28;20547;-39
2023/03/17 00:18:19;;;;;;;;;;;7.80;99.90;;;;;;5071632;28;19949;-39
2023/03/17 00:20:45;;;;;;;;;;;7.80;99.90;;;;;;5071019;28;19949;-39
2023/03/17 00:23:14;;;;;;;;;;;7.80;99.90;;;;;;5071293;28;20026;-40
2023/03/17 00:25:42;;;;;;;;;;;7.80;99.90;;;;;;5053128;28;20027;-39
2023/03/17 00:28:12;;;;;;;;;;;7.80;99.90;;;;;;5053960;28;20376;-40
2023/03/17 00:30:39;;;;;;;;;;;7.80;99.90;;;;;;5071486;28;19973;-40
2023/03/17 00:33:06;;;;;;;;;;;7.80;99.90;;;;;;5053422;28;20479;-38
2023/03/17 00:35:33;;;;;;;;;;;7.80;99.90;;;;;;5053272;28;19947;-39
2023/03/17 00:37:59;;;;;;;;;;;7.80;99.90;;;;;;5053586;28;19966;-39
2023/03/17 00:40:28;;;;;;;;;;;7.80;99.90;;;;;;5052821;28;19992;-40
2023/03/17 00:42:54;;;;;;;;;;;7.90;99.90;;;;;;5071641;28;20030;-38
2023/03/17 00:45:24;;;;;;;;;;;7.80;99.90;;;;;;5044796;28;19945;-40
2023/03/17 00:47:51;;;;;;;;;;;7.80;99.90;;;;;;5064058;28;19953;-40
2023/03/17 00:50:20;;;;;;;;;;;7.80;99.90;;;;;;5053239;28;20361;-39
2023/03/17 00:52:47;;;;;;;;;;;7.80;99.90;;;;;;5069877;28;20055;-41
2023/03/17 00:55:14;;;;;;;;;;;7.80;99.90;;;;;;5071432;28;19997;-39
2023/03/17 00:57:41;;;;;;;;;;;7.80;99.90;;;;;;5071024;28;19961;-40
2023/03/17 01:00:12;;;;;;;;;;;7.80;99.90;;;;;;5067309;28;20007;-39
2023/03/17 01:02:40;;;;;;;;;;;7.80;99.90;;;;;;5053806;28;20426;-41
2023/03/17 01:05:07;;;;;;;;;;;7.80;99.90;;;;;;5054291;28;19990;-38
2023/03/17 01:07:33;;;;;;;;;;;7.80;99.90;;;;;;5035091;28;19999;-41
2023/03/17 01:10:00;;;;;;;;;;;7.80;99.90;;;;;;5047530;28;19952;-40
2023/03/17 01:12:28;;;;;;;;;;;7.80;99.90;;;;;;5070297;28;19944;-40
2023/03/17 01:14:54;;;;;;;;;;;7.80;99.90;;;;;;5053468;28;19956;-38
2023/03/17 01:17:21;;;;;;;;;;;7.70;99.90;;;;;;5060263;28;20028;-39
2023/03/17 01:19:49;;;;;;;;;;;7.70;99.90;;;;;;5070953;28;19950;-41
2023/03/17 01:22:16;;;;;;;;;;;7.70;99.90;;;;;;5055436;28;20005;-42
2023/03/17 01:24:43;;;;;;;;;;;7.70;99.90;;;;;;5061531;28;20006;-39
2023/03/17 01:27:10;;;;;;;;;;;7.80;99.90;;;;;;5071373;28;19940;-41
2023/03/17 01:29:37;;;;;;;;;;;7.80;99.90;;;;;;5070818;28;19990;-38
2023/03/17 01:32:04;;;;;;;;;;;7.70;99.90;;;;;;5051646;28;20027;-40
2023/03/17 01:34:31;;;;;;;;;;;7.70;99.90;;;;;;5067357;28;20435;-39
2023/03/17 01:37:00;;;;;;;;;;;7.70;99.90;;;;;;5052213;28;19962;-38
2023/03/17 01:39:27;;;;;;;;;;;7.70;99.90;;;;;;5044782;28;19942;-39
2023/03/17 01:41:56;;;;;;;;;;;7.60;99.90;;;;;;5052083;28;19949;-38
2023/03/17 01:44:22;;;;;;;;;;;7.70;99.90;;;;;;5052914;28;19991;-40
2023/03/17 01:46:49;;;;;;;;;;;7.70;99.90;;;;;;5067316;28;19950;-39
2023/03/17 01:49:18;;;;;;;;;;;7.70;99.90;;;;;;5034310;28;19948;-40
2023/03/17 01:51:51;;;;;;;;;;;7.70;99.90;;;;;;5068323;28;19957;-38
2023/03/17 01:54:22;;;;;;;;;;;7.70;99.90;;;;;;5047540;28;19997;-39
2023/03/17 01:56:48;;;;;;;;;;;7.70;99.90;;;;;;5068526;28;19998;-40
2023/03/17 01:59:16;;;;;;;;;;;7.70;99.90;;;;;;5056475;28;19988;-41
2023/03/17 02:01:44;;;;;;;;;;;7.70;99.90;;;;;;5074708;28;19995;-39
2023/03/17 02:04:10;;;;;;;;;;;7.70;99.90;;;;;;5073798;28;19952;-39
2023/03/17 02:06:37;;;;;;;;;;;7.70;99.90;;;;;;5056626;28;20007;-41
2023/03/17 02:09:04;;;;;;;;;;;7.70;99.90;;;;;;5072312;28;20289;-40
2023/03/17 02:11:32;;;;;;;;;;;7.70;99.90;;;;;;5055154;28;19951;-39
2023/03/17 02:13:58;;;;;;;;;;;7.70;99.90;;;;;;5042586;28;20430;-41
2023/03/17 02:16:25;;;;;;;;;;;7.70;99.90;;;;;;5054857;28;19995;-40
2023/03/17 02:18:52;;;;;;;;;;;7.70;99.90;;;;;;5056808;28;19954;-39
2023/03/17 02:21:37;;;;;;;;;;;7.60;99.90;;;;;;5064288;28;19945;-40
2023/03/17 02:24:06;;;;;;;;;;;7.70;99.90;;;;;;5052132;28;19962;-40
2023/03/17 02:26:33;;;;;;;;;;;7.70;99.90;;;;;;5073908;28;20006;-40
2023/03/17 02:29:00;;;;;;;;;;;7.70;99.90;;;;;;5073581;28;19949;-40
2023/03/17 02:31:26;;;;;;;;;;;7.70;99.90;;;;;;5055496;28;20178;-41
2023/03/17 02:33:53;;;;;;;;;;;7.60;99.90;;;;;;5070883;28;20009;-39
2023/03/17 02:36:20;;;;;;;;;;;7.60;99.90;;;;;;5074352;28;20156;-38
2023/03/17 02:38:47;;;;;;;;;;;7.70;99.90;;;;;;5073923;28;20376;-41
2023/03/17 02:41:15;;;;;;;;;;;7.60;99.90;;;;;;5074355;28;19955;-40
2023/03/17 02:43:42;;;;;;;;;;;7.70;99.90;;;;;;5056264;28;20011;-40
2023/03/17 02:46:09;;;;;;;;;;;7.60;99.90;;;;;;5073603;28;19944;-41
2023/03/17 02:48:36;;;;;;;;;;;7.60;99.90;;;;;;5056321;28;19994;-40
2023/03/17 02:51:03;;;;;;;;;;;7.60;99.90;;;;;;5066197;28;19952;-39
2023/03/17 02:53:31;;;;;;;;;;;7.60;99.90;;;;;;5072289;28;19965;-39
2023/03/17 02:55:57;;;;;;;;;;;7.60;99.90;;;;;;5054402;28;19960;-39
2023/03/17 02:58:25;;;;;;;;;;;7.60;99.90;;;;;;5073671;28;19974;-40
2023/03/17 03:00:52;;;;;;;;;;;7.60;99.90;;;;;;5073156;28;19990;-40
2023/03/17 03:03:19;;;;;;;;;;;7.60;99.90;;;;;;5062486;28;20317;-40
2023/03/17 03:05:46;;;;;;;;;;;7.50;99.90;;;;;;5072715;28;20387;-40
2023/03/17 03:08:13;;;;;;;;;;;7.50;99.90;;;;;;5038030;28;19949;-39
2023/03/17 03:10:40;;;;;;;;;;;7.60;99.90;;;;;;5049764;28;20043;-41
2023/03/17 03:13:07;;;;;;;;;;;7.60;99.90;;;;;;5054615;28;19951;-41
2023/03/17 03:15:35;;;;;;;;;;;7.60;99.90;;;;;;5055399;28;19998;-42
2023/03/17 03:18:01;;;;;;;;;;;7.60;99.90;;;;;;5072679;28;19963;-41
2023/03/17 03:20:28;;;;;;;;;;;7.60;99.90;;;;;;5042722;28;20004;-40
2023/03/17 03:22:55;;;;;;;;;;;7.50;99.90;;;;;;5058995;28;20026;-39
2023/03/17 03:25:21;;;;;;;;;;;7.60;99.90;;;;;;5072427;28;19966;-39
2023/03/17 03:27:48;;;;;;;;;;;7.60;99.90;;;;;;5072554;28;19998;-41
2023/03/17 03:30:15;;;;;;;;;;;7.50;99.90;;;;;;5055042;28;20071;-40
2023/03/17 03:32:43;;;;;;;;;;;7.50;99.90;;;;;;5072777;28;20018;-40
2023/03/17 03:35:10;;;;;;;;;;;7.50;99.90;;;;;;5072111;28;19948;-41
2023/03/17 03:37:37;;;;;;;;;;;7.50;99.90;;;;;;5054036;28;19958;-40
2023/03/17 03:40:06;;;;;;;;;;;7.60;99.90;;;;;;5054635;28;19998;-41
2023/03/17 03:42:32;;;;;;;;;;;7.50;99.90;;;;;;5052997;28;20397;-41
2023/03/17 03:44:59;;;;;;;;;;;7.50;99.90;;;;;;5072505;28;20011;-41
2023/03/17 03:47:26;;;;;;;;;;;7.60;99.90;;;;;;5053942;28;19949;-40
2023/03/17 03:49:54;;;;;;;;;;;7.50;99.90;;;;;;5053539;28;19948;-40
2023/03/17 03:52:21;;;;;;;;;;;7.50;99.90;;;;;;5070847;28;19947;-41
2023/03/17 03:54:47;;;;;;;;;;;7.50;99.90;;;;;;5054223;28;20002;-40
2023/03/17 03:57:14;;;;;;;;;;;7.50;99.90;;;;;;5083504;28;19946;-41
2023/03/17 03:59:41;;;;;;;;;;;7.50;99.90;;;;;;5074408;28;19946;-40
2023/03/17 04:02:07;;;;;;;;;;;7.50;99.90;;;;;;5080960;28;20005;-39
2023/03/17 04:04:34;;;;;;;;;;;7.50;99.90;;;;;;5077962;28;19981;-40
2023/03/17 04:07:02;;;;;;;;;;;7.50;99.90;;;;;;5050109;28;19998;-40
2023/03/17 04:09:29;;;;;;;;;;;7.60;99.90;;;;;;5069695;28;20035;-39
2023/03/17 04:11:55;;;;;;;;;;;7.60;99.90;;;;;;5067911;28;19946;-39
2023/03/17 04:14:22;;;;;;;;;;;7.60;99.90;;;;;;5054101;28;20024;-38
2023/03/17 04:16:49;;;;;;;;;;;7.60;99.90;;;;;;5071641;28;19949;-39
2023/03/17 04:19:15;;;;;;;;;;;7.50;99.90;;;;;;5059037;28;20175;-40
2023/03/17 04:21:42;;;;;;;;;;;7.50;99.90;;;;;;5057348;28;19947;-38
2023/03/17 04:24:10;;;;;;;;;;;7.50;99.90;;;;;;5070441;28;20036;-39
2023/03/17 04:26:37;;;;;;;;;;;7.50;99.90;;;;;;5054187;28;19946;-40
2023/03/17 04:29:03;;;;;;;;;;;7.50;99.90;;;;;;5069580;28;19995;-39
2023/03/17 04:31:30;;;;;;;;;;;7.50;99.90;;;;;;5070510;28;19943;-39
2023/03/17 04:33:56;;;;;;;;;;;7.50;99.90;;;;;;5052643;28;20409;-41
2023/03/17 04:36:23;;;;;;;;;;;7.50;99.90;;;;;;5071020;28;19996;-40
2023/03/17 04:38:50;;;;;;;;;;;7.50;99.90;;;;;;5071476;28;20332;-40
2023/03/17 04:41:18;;;;;;;;;;;7.50;99.90;;;;;;5071625;28;20379;-39
2023/03/17 04:43:45;;;;;;;;;;;7.50;99.90;;;;;;5071279;28;19992;-40
2023/03/17 04:46:12;;;;;;;;;;;7.50;99.90;;;;;;5052962;28;19996;-38
2023/03/17 04:48:38;;;;;;;;;;;7.50;99.90;;;;;;5055472;28;20004;-40
2023/03/17 04:51:05;;;;;;;;;;;7.50;99.90;;;;;;5047518;28;20013;-41
2023/03/17 04:53:32;;;;;;;;;;;7.50;99.90;;;;;;5053088;28;19996;-39
2023/03/17 04:55:59;;;;;;;;;;;7.60;99.90;;;;;;5071434;28;19952;-40
2023/03/17 04:58:27;;;;;;;;;;;7.50;99.90;;;;;;5071797;28;20378;-40
2023/03/17 05:00:54;;;;;;;;;;;7.50;99.90;;;;;;5069546;28;20298;-38
2023/03/17 05:03:21;;;;;;;;;;;7.50;99.90;;;;;;5052301;28;19954;-39
2023/03/17 05:05:49;;;;;;;;;;;7.50;99.90;;;;;;5053556;28;19954;-39
2023/03/17 05:08:16;;;;;;;;;;;7.50;99.90;;;;;;5070171;28;19962;-40
2023/03/17 05:10:42;;;;;;;;;;;7.50;99.90;;;;;;5054883;28;19993;-38
2023/03/17 05:13:09;;;;;;;;;;;7.50;99.90;;;;;;5071040;28;19939;-39
2023/03/17 05:15:37;;;;;;;;;;;7.50;99.90;;;;;;5058932;28;20329;-39
2023/03/17 05:18:04;;;;;;;;;;;7.50;99.90;;;;;;5069811;28;20006;-39
2023/03/17 05:20:30;;;;;;;;;;;7.50;99.90;;;;;;5068205;28;20162;-39
2023/03/17 05:22:57;;;;;;;;;;;7.50;99.90;;;;;;5052112;28;19991;-39
2023/03/17 05:25:23;;;;;;;;;;;7.50;99.90;;;;;;5070332;28;19972;-40
2023/03/17 05:27:50;;;;;;;;;;;7.60;99.90;;;;;;5057468;28;20355;-39
2023/03/17 05:30:17;;;;;;;;;;;7.50;99.90;;;;;;5052448;28;19983;-39
2023/03/17 05:32:45;;;;;;;;;;;7.50;99.90;;;;;;5055060;28;20531;-39
2023/03/17 05:35:12;;;;;;;;;;;7.50;99.90;;;;;;5056951;28;19980;-39
2023/03/17 05:37:38;;;;;;;;;;;7.50;99.90;;;;;;5053535;28;19946;-39
2023/03/17 05:40:05;;;;;;;;;;;7.60;99.90;;;;;;5072854;28;19991;-38
2023/03/17 05:42:32;;;;;;;;;;;7.50;99.90;;;;;;5066544;28;20034;-40
2023/03/17 05:44:59;;;;;;;;;;;7.50;99.90;;;;;;5080116;28;19993;-40
2023/03/17 05:47:25;;;;;;;;;;;7.50;99.90;;;;;;5044356;28;20433;-40
2023/03/17 05:49:53;;;;;;;;;;;7.50;99.90;;;;;;5056513;28;20414;-40
2023/03/17 05:52:20;;;;;;;;;;;7.50;99.90;;;;;;5041760;28;19946;-39
2023/03/17 05:54:47;;;;;;;;;;;7.50;99.90;;;;;;5063550;28;19997;-39
2023/03/17 05:57:14;;;;;;;;;;;7.50;99.90;;;;;;5054834;28;20385;-41
2023/03/17 05:59:41;;;;;;;;;;;7.50;99.90;;;;;;5071585;28;20052;-40
2023/03/17 06:02:08;;;;;;;;;;;7.50;99.90;;;;;;5055404;28;19958;-40
2023/03/17 06:04:35;;;;;;;;;;;7.50;99.90;;;;;;5055081;28;19946;-38
2023/03/17 06:07:03;;;;;;;;;;;7.50;99.90;;;;;;5064863;28;20001;-39
2023/03/17 06:09:30;;;;;;;;;;;7.50;99.90;;;;;;5071263;28;19941;-38
2023/03/17 06:11:58;;;;;;;;;;;7.50;99.90;;;;;;5053747;28;19992;-41
2023/03/17 06:14:25;;;;;;;;;;;7.60;99.90;;;;;;5069214;28;20328;-39
2023/03/17 06:16:51;;;;;;;;;;;7.60;99.90;;;;;;5058933;28;20421;-39
2023/03/17 06:19:18;;;;;;;;;;;7.60;99.90;;;;;;5061590;28;20358;-41
2023/03/17 06:21:45;;;;;;;;;;;7.60;99.90;;;;;;5044961;28;19999;-39
2023/03/17 06:24:13;;;;;;;;;;;7.60;99.90;;;;;;5071811;28;19947;-40
2023/03/17 06:26:41;;;;;;;;;;;7.70;99.90;;;;;;5055196;28;19950;-40
2023/03/17 06:29:08;;;;;;;;;;;7.70;99.90;;;;;;5066509;28;19983;-40
2023/03/17 06:31:35;;;;;;;;;;;7.70;99.90;;;;;;5044970;28;19951;-39
2023/03/17 06:34:02;;;;;;;;;;;7.80;99.90;;;;;;5051072;28;19959;-39
2023/03/17 06:36:29;;;;;;;;;;;7.80;99.90;;;;;;5070550;28;19946;-37
2023/03/17 06:38:55;;;;;;;;;;;7.90;99.90;;;;;;5064172;28;19968;-41
2023/03/17 06:41:23;;;;;;;;;;;7.90;99.90;;;;;;5068584;28;20002;-40
2023/03/17 06:43:50;;;;;;;;;;;7.90;99.90;;;;;;5054323;28;19950;-39
2023/03/17 06:46:17;;;;;;;;;;;8.00;99.90;;;;;;5062087;28;19970;-38
2023/03/17 06:48:43;;;;;;;;;;;8.00;99.90;;;;;;5051142;28;19944;-40
2023/03/17 06:51:10;;;;;;;;;;;8.00;99.90;;;;;;5069822;28;20403;-40
2023/03/17 06:53:37;;;;;;;;;;;8.00;99.90;;;;;;5047592;28;19944;-41
2023/03/17 06:56:04;;;;;;;;;;;8.00;99.90;;;;;;5065163;28;20428;-38
2023/03/17 06:58:32;;;;;;;;;;;8.00;99.90;;;;;;5045559;28;19963;-36
2023/03/17 07:00:59;;;;;;;;;;;8.00;99.90;;;;;;5073976;28;20387;-40
2023/03/17 07:03:25;;;;;;;;;;;8.10;99.90;;;;;;5049748;28;20254;-40
2023/03/17 07:05:52;;;;;;;;;;;8.10;99.90;;;;;;5071115;28;20372;-39
2023/03/17 07:08:19;;;;;;;;;;;8.10;99.90;;;;;;5083692;28;20365;-40
2023/03/17 07:10:46;;;;;;;;;;;8.10;99.90;;;;;;5068519;28;19957;-40
2023/03/17 07:13:13;;;;;;;;;;;8.20;99.90;;;;;;5067605;28;19946;-40
2023/03/17 07:15:41;;;;;;;;;;;8.20;99.90;;;;;;5065335;28;19943;-39
2023/03/17 07:18:08;;;;;;;;;;;8.20;99.90;;;;;;5067344;28;20353;-39
2023/03/17 07:20:35;;;;;;;;;;;8.20;99.90;;;;;;5066042;28;19948;-39
2023/03/17 07:23:01;;;;;;;;;;;8.30;99.90;;;;;;5067483;28;20003;-42
2023/03/17 07:25:28;;;;;;;;;;;8.30;99.90;;;;;;5068274;28;19952;-40
2023/03/17 07:27:55;;;;;;;;;;;8.30;99.90;;;;;;5045908;28;19941;-37
2023/03/17 07:30:22;;;;;;;;;;;8.40;99.90;;;;;;5067093;28;19949;-38
2023/03/17 07:32:50;;;;;;;;;;;8.50;99.90;;;;;;5049156;28;20340;-38
2023/03/17 07:35:16;;;;;;;;;;;8.50;99.90;;;;;;5050476;28;20495;-39
2023/03/17 07:37:44;;;;;;;;;;;8.60;99.90;;;;;;5047265;28;19948;-39
2023/03/17 07:40:11;;;;;;;;;;;8.60;99.90;;;;;;5046936;28;20019;-37
2023/03/17 07:42:38;;;;;;;;;;;8.60;99.90;;;;;;5055184;28;19945;-39
2023/03/17 07:45:06;;;;;;;;;;;8.70;99.90;;;;;;5062890;28;20138;-37
2023/03/17 07:47:33;;;;;;;;;;;8.70;99.90;;;;;;5065787;28;20286;-40
2023/03/17 07:50:01;;;;;;;;;;;8.70;99.90;;;;;;5061853;28;20004;-39
2023/03/17 07:52:28;;;;;;;;;;;8.70;99.90;;;;;;5047004;28;19943;-39
2023/03/17 07:54:54;;;;;;;;;;;8.80;99.90;;;;;;5049426;28;20414;-39
2023/03/17 07:57:21;;;;;;;;;;;8.80;99.90;;;;;;5063112;28;20272;-39
2023/03/17 07:59:49;;;;;;;;;;;8.90;99.90;;;;;;5049010;28;19943;-39
2023/03/17 08:02:16;;;;;;;;;;;9.00;99.90;;;;;;5067800;28;19945;-41
2023/03/17 08:04:42;;;;;;;;;;;9.10;99.90;;;;;;5046174;28;19941;-39
2023/03/17 08:07:11;;;;;;;;;;;9.20;99.90;;;;;;5056550;28;19948;-39
2023/03/17 08:09:38;;;;;;;;;;;9.30;99.90;;;;;;5059422;28;20477;-39
2023/03/17 08:12:05;;;;;;;;;;;9.40;99.90;;;;;;5064241;28;19946;-38
2023/03/17 08:14:32;;;;;;;;;;;9.50;99.90;;;;;;5056684;28;19949;-38
2023/03/17 08:16:58;;;;;;;;;;;9.50;99.90;;;;;;5060849;28;20012;-39
2023/03/17 08:19:25;;;;;;;;;;;9.70;99.90;;;;;;5062864;28;20039;-39
2023/03/17 08:21:52;;;;;;;;;;;9.70;99.90;;;;;;5046477;28;19978;-39
2023/03/17 08:24:20;;;;;;;;;;;9.80;99.90;;;;;;5046762;28;20035;-39
2023/03/17 08:26:48;;;;;;;;;;;9.90;99.90;;;;;;5057327;28;20039;-39
2023/03/17 08:29:15;;;;;;;;;;;10.00;99.90;;;;;;5054633;28;19952;-40
2023/03/17 08:31:42;;;;;;;;;;;10.00;99.90;;;;;;5065657;28;20031;-36
2023/03/17 08:34:08;;;;;;;;;;;10.10;99.90;;;;;;5071236;28;19940;-38
2023/03/17 08:36:35;;;;;;;;;;;10.10;99.90;;;;;;5045385;28;20349;-38
2023/03/17 08:39:03;;;;;;;;;;;10.20;99.90;;;;;;5064381;28;19969;-40
2023/03/17 08:41:31;;;;;;;;;;;10.30;99.90;;;;;;5046634;28;19950;-36
2023/03/17 08:43:58;;;;;;;;;;;10.30;99.90;;;;;;5065670;28;20049;-38
2023/03/17 08:46:26;;;;;;;;;;;10.40;99.90;;;;;;5043067;28;20347;-40
2023/03/17 08:48:52;;;;;;;;;;;10.50;99.90;;;;;;5049357;28;20000;-42
2023/03/17 08:51:19;;;;;;;;;;;10.50;99.90;;;;;;5063218;28;19939;-38
2023/03/17 08:53:46;;;;;;;;;;;10.60;99.90;;;;;;5047928;28;19987;-39
2023/03/17 08:56:13;;;;;;;;;;;10.80;99.90;;;;;;5039252;28;19995;-40
2023/03/17 08:58:41;;;;;;;;;;;10.80;99.90;;;;;;5066181;28;19959;-39
2023/03/17 09:01:09;;;;;;;;;;;11.00;99.90;;;;;;5089614;28;19949;-40
2023/03/17 09:03:37;;;;;;;;;;;11.10;99.90;;;;;;5086289;28;19941;-37
2023/03/17 09:06:05;;;;;;;;;;;11.20;99.90;;;;;;5060841;28;20036;-38
2023/03/17 09:08:32;;;;;;;;;;;11.30;99.90;;;;;;5061486;28;20043;-38
2023/03/17 09:10:59;;;;;;;;;;;11.40;99.90;;;;;;5055568;28;19954;-39
2023/03/17 09:13:27;;;;;;;;;;;11.50;99.90;;;;;;5056343;28;20000;-38
2023/03/17 09:15:55;;;;;;;;;;;11.50;99.90;;;;;;5059016;28;20454;-38
2023/03/17 09:18:21;;;;;;;;;;;11.70;99.90;;;;;;5071085;28;19952;-40
2023/03/17 09:20:48;;;;;;;;;;;11.90;99.90;;;;;;5081544;28;19965;-39
2023/03/17 09:23:15;;;;;;;;;;;11.90;99.90;;;;;;5053964;28;19991;-39
2023/03/17 09:25:42;;;;;;;;;;;12.10;99.90;;;;;;5066758;28;19992;-38
2023/03/17 09:28:10;;;;;;;;;;;12.10;99.90;;;;;;5046211;28;19944;-39
2023/03/17 09:30:36;;;;;;;;;;;12.30;99.90;;;;;;5066070;28;19941;-40
2023/03/17 09:33:05;;;;;;;;;;;12.30;99.90;;;;;;5054241;28;19993;-39
2023/03/17 09:35:31;;;;;;;;;;;12.50;99.90;;;;;;5055897;28;19950;-39
2023/03/17 09:37:58;;;;;;;;;;;12.50;99.90;;;;;;5071932;28;19964;-38
2023/03/17 09:40:30;;;;;;;;;;;12.50;99.90;;;;;;5072873;28;20414;-40
2023/03/17 09:42:58;;;;;;;;;;;12.80;99.90;;;;;;5071361;28;19955;-38
2023/03/17 09:45:28;;;;;;;;;;;13.00;99.90;;;;;;5050393;28;19997;-39
2023/03/17 09:48:14;;;;;;;;;;;13.20;99.90;;;;;;5068911;28;20395;-38
2023/03/17 09:50:43;;;;;;;;;;;13.50;99.90;;;;;;5063685;28;19941;-37
2023/03/17 09:53:12;;;;;;;;;;;13.70;99.90;;;;;;5050459;28;20446;-39
2023/03/17 09:55:39;;;;;;;;;;;13.80;99.90;;;;;;5051786;28;19944;-39
2023/03/17 09:58:06;;;;;;;;;;;13.90;99.70;;;;;;5066694;28;20376;-39
2023/03/17 10:00:33;;;;;;;;;;;13.90;99.10;;;;;;5051082;28;19969;-39
2023/03/17 10:03:00;;;;;;;;;;;14.00;98.20;;;;;;5052775;28;19945;-39
2023/03/17 10:05:28;;;;;;;;;;;14.10;99.50;;;;;;5067335;28;19977;-38
2023/03/17 10:07:58;;;;;;;;;;;14.20;99.10;;;;;;5053369;28;19955;-39
2023/03/17 10:10:26;;;;;;;;;;;14.40;99.90;;;;;;5062658;28;20045;-39
2023/03/17 10:12:54;;;;;;;;;;;14.50;98.30;;;;;;5063997;28;20020;-39
2023/03/17 10:15:21;;;;;;;;;;;14.60;98.00;;;;;;5046965;28;19944;-39
2023/03/17 10:17:48;;;;;;;;;;;14.60;98.00;;;;;;5051124;28;20293;-39
2023/03/17 10:20:16;;;;;;;;;;;14.80;97.90;;;;;;5051349;28;20046;-39
2023/03/17 10:22:45;;;;;;;;;;;14.90;97.20;;;;;;5048327;28;20295;-39
2023/03/17 10:25:13;;;;;;;;;;;14.90;96.50;;;;;;5071546;28;20401;-40
2023/03/17 10:27:40;;;;;;;;;;;15.00;96.90;;;;;;5052582;28;19947;-38
2023/03/17 10:30:10;;;;;;;;;;;15.10;97.20;;;;;;5067209;28;19941;-38
2023/03/17 10:32:37;;;;;;;;;;;15.10;97.00;;;;;;5045734;28;20359;-39
2023/03/17 10:35:04;;;;;;;;;;;15.30;97.00;;;;;;5057604;28;19950;-39
2023/03/17 10:37:35;;;;;;;;;;;15.30;95.50;;;;;;5081083;28;20356;-39
2023/03/17 10:40:04;;;;;;;;;;;15.40;94.80;;;;;;5073522;28;19969;-39
2023/03/17 10:42:31;;;;;;;;;;;15.40;94.90;;;;;;5056608;28;19940;-38
2023/03/17 10:44:58;;;;;;;;;;;15.40;95.40;;;;;;5061113;28;19952;-39
2023/03/17 10:47:32;;;;;;;;;;;15.40;95.00;;;;;;5074573;28;19945;-39
2023/03/17 10:49:59;;;;;;;;;;;15.50;95.30;;;;;;5038619;28;19942;-39
2023/03/17 10:52:27;;;;;;;;;;;15.60;94.60;;;;;;5071100;28;19987;-39
2023/03/17 10:54:54;;;;;;;;;;;15.50;95.00;;;;;;5069035;28;20323;-38
2023/03/17 10:57:21;;;;;;;;;;;15.60;96.40;;;;;;5076061;28;19944;-38
2023/03/17 10:59:51;;;;;;;;;;;15.70;95.00;;;;;;5047159;28;19957;-38
2023/03/17 11:02:19;;;;;;;;;;;15.70;96.50;;;;;;5070904;28;19990;-39
2023/03/17 11:04:45;;;;;;;;;;;15.80;95.50;;;;;;5052306;28;20352;-39
2023/03/17 11:07:15;;;;;;;;;;;15.80;95.50;;;;;;5055345;28;19943;-39
2023/03/17 11:09:42;;;;;;;;;;;15.90;95.10;;;;;;5067607;28;19991;-38
2023/03/17 11:12:18;;;;;;;;;;;16.00;95.50;;;;;;5046332;28;20410;-39
2023/03/17 11:14:47;;;;;;;;;;;16.20;95.30;;;;;;5067163;28;19945;-39
2023/03/17 11:17:16;;;;;;;;;;;16.40;96.00;;;;;;5051392;28;19954;-39
2023/03/17 11:19:44;;;;;;;;;;;16.60;96.60;;;;;;5068403;28;20000;-39
2023/03/17 11:22:11;;;;;;;;;;;16.80;95.90;;;;;;5050943;28;20338;-39
2023/03/17 11:24:40;;;;;;;;;;;16.90;95.00;;;;;;5052902;28;19990;-39
2023/03/17 11:27:10;;;;;;;;;;;17.00;95.60;;;;;;5070478;28;21495;-39
2023/03/17 11:29:40;;;;;;;;;;;17.10;93.80;;;;;;5051860;28;20452;-39
2023/03/17 11:32:12;;;;;;;;;;;17.20;93.70;;;;;;5069357;28;20320;-39
2023/03/17 11:34:42;;;;;;;;;;;17.30;95.40;;;;;;5054774;28;19949;-37
2023/03/17 11:37:11;;;;;;;;;;;17.40;93.30;;;;;;5054647;28;19942;-38
2023/03/17 11:39:40;;;;;;;;;;;17.50;94.20;;;;;;5057025;28;19954;-39
2023/03/17 11:42:08;;;;;;;;;;;17.60;95.80;;;;;;5062690;28;19952;-38
2023/03/17 11:44:54;;;;;;;;;;;17.70;92.30;;;;;;5050882;28;19998;-39
2023/03/17 11:47:30;;;;;;;;;;;17.80;94.10;;;;;;5067488;28;19994;-38
2023/03/17 11:49:59;;;;;;;;;;;17.90;94.90;;;;;;5068315;28;20430;-38
2023/03/17 11:52:27;;;;;;;;;;;18.00;94.60;;;;;;5061468;28;19954;-39
2023/03/17 11:54:55;;;;;;;;;;;18.10;94.50;;;;;;5059820;28;19951;-38
2023/03/17 11:57:23;;;;;;;;;;;18.20;94.70;;;;;;5048261;28;19946;-38
2023/03/17 11:59:50;;;;;;;;;;;18.20;93.00;;;;;;5040338;28;19950;-38
2023/03/17 12:02:20;;;;;;;;;;;18.20;92.60;;;;;;5065980;28;19943;-38
2023/03/17 12:04:52;;;;;;;;;;;18.20;92.50;;;;;;5052675;28;20304;-38
2023/03/17 12:07:20;;;;;;;;;;;18.20;93.70;;;;;;5046022;28;19948;-39
2023/03/17 12:09:48;;;;;;;;;;;18.30;92.90;;;;;;5045442;28;19944;-39
2023/03/17 12:12:14;;;;;;;;;;;18.20;93.60;;;;;;5068199;28;20046;-37
2023/03/17 12:14:42;;;;;;;;;;;18.20;92.20;;;;;;5070329;28;19941;-38
2023/03/17 12:17:11;;;;;;;;;;;18.20;92.60;;;;;;5044464;28;19987;-39
2023/03/17 12:19:41;;;;;;;;;;;18.30;94.20;;;;;;5064957;28;19947;-39
2023/03/17 12:22:12;;;;;;;;;;;18.30;94.50;;;;;;5066439;28;20016;-39
2023/03/17 12:24:39;;;;;;;;;;;18.30;94.90;;;;;;5052232;28;20020;-39
2023/03/17 12:27:07;;;;;;;;;;;18.30;92.40;;;;;;5058169;28;20043;-39
2023/03/17 12:29:39;;;;;;;;;;;18.30;93.30;;;;;;5054473;28;19976;-37
2023/03/17 12:32:07;;;;;;;;;;;18.20;90.40;;;;;;5071334;28;19948;-37
2023/03/17 12:34:34;;;;;;;;;;;18.10;93.10;;;;;;5054130;28;19974;-37
2023/03/17 12:37:01;;;;;;;;;;;18.10;93.80;;;;;;5066398;28;20006;-37
2023/03/17 12:39:30;;;;;;;;;;;18.10;92.60;;;;;;5071681;28;19966;-38
2023/03/17 12:42:09;;;;;;;;;;;18.00;92.90;;;;;;5072068;28;20017;-39
2023/03/17 12:44:40;;;;;;;;;;;18.00;93.50;;;;;;5054361;28;19954;-38
2023/03/17 12:47:26;;;;;;;;;;;17.80;94.90;;;;;;5054225;28;20276;-38
2023/03/17 12:50:01;;;;;;;;;;;17.90;95.30;;;;;;5054356;28;19950;-38
2023/03/17 12:52:40;;;;;;;;;;;17.80;95.90;;;;;;5072046;28;19963;-38
2023/03/17 12:55:11;;;;;;;;;;;17.80;95.20;;;;;;5053181;28;19947;-38
2023/03/17 12:57:39;;;;;;;;;;;17.80;96.20;;;;;;5053724;28;19944;-38
2023/03/17 13:00:07;;;;;;;;;;;17.80;95.60;;;;;;5043738;28;20436;-39
2023/03/17 13:02:36;;;;;;;;;;;17.80;97.40;;;;;;5071155;28;20033;-38
2023/03/17 13:05:05;;;;;;;;;;;17.90;98.10;;;;;;5052489;28;19948;-38
2023/03/17 13:07:32;;;;;;;;;;;18.00;95.00;;;;;;5066452;28;19998;-37
2023/03/17 13:10:20;;;;;;;;;;;18.10;94.40;;;;;;5045489;28;19969;-38
2023/03/17 13:13:05;;;;;;;;;;;18.10;96.60;;;;;;5039913;28;20293;-39
2023/03/17 13:15:49;;;;;;;;;;;18.10;94.80;;;;;;5069309;28;20343;-38
2023/03/17 13:18:37;;;;;;;;;;;18.10;96.50;;;;;;5070620;28;19988;-38
2023/03/17 13:21:09;;;;;;;;;;;18.20;96.70;;;;;;5048321;28;20022;-39
2023/03/17 13:23:37;;;;;;;;;;;18.10;98.00;;;;;;5049960;28;19971;-38
2023/03/17 13:26:04;;;;;;;;;;;18.20;95.30;;;;;;5050949;28;19953;-38
2023/03/17 13:28:40;;;;;;;;;;;18.20;97.80;;;;;;5050171;28;20008;-38
2023/03/17 13:31:10;;;;;;;;;;;18.20;97.80;;;;;;5033063;28;19993;-38
2023/03/17 13:33:41;;;;;;;;;;;18.30;98.20;;;;;;5048376;28;19974;-38
2023/03/17 13:36:21;;;;;;;;;;;18.30;97.30;;;;;;5050338;28;20507;-39
2023/03/17 13:38:51;;;;;;;;;;;18.30;95.60;;;;;;5049780;28;19947;-38
2023/03/17 13:41:21;;;;;;;;;;;18.30;93.10;;;;;;5050086;28;19959;-39
2023/03/17 13:43:55;;;;;;;;;;;18.30;96.30;;;;;;5047268;28;20347;-39
2023/03/17 13:46:25;;;;;;;;;;;18.30;95.30;;;;;;5030567;28;20006;-38
2023/03/17 13:48:52;;;;;;;;;;;18.40;96.10;;;;;;5035259;28;20287;-39
2023/03/17 13:51:19;;;;;;;;;;;18.30;97.10;;;;;;5037652;28;19945;-38
2023/03/17 13:53:47;;;;;;;;;;;18.40;93.50;;;;;;5048182;28;19950;-37
2023/03/17 13:56:16;;;;;;;;;;;18.30;94.80;;;;;;5049963;28;19952;-38
2023/03/17 13:58:49;;;;;;;;;;;18.30;92.90;;;;;;5051221;28;19966;-40
2023/03/17 14:01:16;;;;;;;;;;;18.20;92.40;;;;;;5052824;28;20380;-37
2023/03/17 14:03:47;;;;;;;;;;;18.10;95.00;;;;;;5047609;28;19941;-38
2023/03/17 14:06:14;;;;;;;;;;;18.10;95.40;;;;;;5051508;28;19947;-38
2023/03/17 14:08:43;;;;;;;;;;;18.10;95.90;;;;;;5049954;28;19948;-38
2023/03/17 14:11:15;;;;;;;;;;;18.10;96.00;;;;;;5046815;28;20000;-38
2023/03/17 14:13:43;;;;;;;;;;;18.20;97.00;;;;;;5048433;28;19945;-38
2023/03/17 14:16:13;;;;;;;;;;;18.20;95.80;;;;;;5048557;28;19946;-38
2023/03/17 14:18:41;;;;;;;;;;;18.10;93.20;;;;;;5052239;28;20479;-38
2023/03/17 14:21:20;;;;;;;;;;;18.00;93.80;;;;;;5036886;28;20027;-38
2023/03/17 14:23:52;;;;;;;;;;;17.90;94.40;;;;;;5047036;28;20018;-39
2023/03/17 14:26:18;;;;;;;;;;;17.90;93.50;;;;;;5045081;28;19951;-39
2023/03/17 14:28:47;;;;;;;;;;;17.80;96.10;;;;;;5052742;28;20328;-38